sensor_id;sensor_type;location;lat;lon;timestamp;temperature;humidity
5280;DHT22;2663;53.588;10.010;2023-05-07T00:00:35;11.10;99.90
5280;DHT22;2663;53.588;10.010;2023-05-07T00:03:02;11.00;99.90
5280;DHT22;2663;53.588;10.010;2023-05-07T00:05:29;11.00;99.90
5280;DHT22;2663;53.588;10.010;2023-05-07T00:07:56;11.00;99.90
5280;DHT22;2663;53.588;10.010;2023-05-07T00:10:25;11.00;99.90
5280;DHT22;2663;53.588;10.010;2023-05-07T00:12:52;11.00;99.90
5280;DHT22;2663;53.588;10.010;2023-05-07T00:15:19;11.00;99.90
5280;DHT22;2663;53.588;10.010;2023-05-07T00:17:46;11.00;99.90
5280;DHT22;2663;53.588;10.010;2023-05-07T00:20:13;11.00;99.90
5280;DHT22;2663;53.588;10.010;2023-05-07T00:22:39;11.00;99.90
5280;DHT22;2663;53.588;10.010;2023-05-07T00:25:06;11.00;99.90
5280;DHT22;2663;53.588;10.010;2023-05-07T00:27:33;11.10;99.90
5280;DHT22;2663;53.588;10.010;2023-05-07T00:30:00;11.00;99.90
5280;DHT22;2663;53.588;10.010;2023-05-07T00:32:27;11.10;99.90
5280;DHT22;2663;53.588;10.010;2023-05-07T00:34:53;11.10;99.90
5280;DHT22;2663;53.588;10.010;2023-05-07T00:37:20;11.00;99.90
5280;DHT22;2663;53.588;10.010;2023-05-07T00:39:47;11.00;99.90
5280;DHT22;2663;53.588;10.010;2023-05-07T00:42:14;11.10;99.90
5280;DHT22;2663;53.588;10.010;2023-05-07T00:44:41;11.10;99.90
5280;DHT22;2663;53.588;10.010;2023-05-07T00:47:08;11.00;99.90
5280;DHT22;2663;53.588;10.010;2023-05-07T00:49:39;10.90;99.90
5280;DHT22;2663;53.588;10.010;2023-05-07T00:52:10;10.90;99.90
5280;DHT22;2663;53.588;10.010;2023-05-07T00:54:38;10.90;99.90
5280;DHT22;2663;53.588;10.010;2023-05-07T00:57:07;10.90;99.90
5280;DHT22;2663;53.588;10.010;2023-05-07T00:59:35;11.00;99.90
5280;DHT22;2663;53.588;10.010;2023-05-07T01:02:02;10.90;99.90
5280;DHT22;2663;53.588;10.010;2023-05-07T01:04:30;10.90;99.90
5280;DHT22;2663;53.588;10.010;2023-05-07T01:06:58;11.00;99.90
5280;DHT22;2663;53.588;10.010;2023-05-07T01:09:26;11.00;99.90
5280;DHT22;2663;53.588;10.010;2023-05-07T01:11:55;11.00;99.90
5280;DHT22;2663;53.588;10.010;2023-05-07T01:14:24;10.90;99.90
5280;DHT22;2663;53.588;10.010;2023-05-07T01:16:52;10.90;99.90
5280;DHT22;2663;53.588;10.010;2023-05-07T01:19:20;9.00;99.90
5280;DHT22;2663;53.588;10.010;2023-05-07T01:21:48;10.90;99.90
5280;DHT22;2663;53.588;10.010;2023-05-07T01:24:15;10.90;99.90
5280;DHT22;2663;53.588;10.010;2023-05-07T01:26:43;10.90;99.90
5280;DHT22;2663;53.588;10.010;2023-05-07T01:29:11;10.80;99.90
5280;DHT22;2663;53.588;10.010;2023-05-07T01:31:38;10.80;99.90
5280;DHT22;2663;53.588;10.010;2023-05-07T01:34:07;12.60;99.90
5280;DHT22;2663;53.588;10.010;2023-05-07T01:36:37;10.80;99.90
5280;DHT22;2663;53.588;10.010;2023-05-07T01:39:06;10.90;99.90
5280;DHT22;2663;53.588;10.010;2023-05-07T01:41:32;10.90;99.90
5280;DHT22;2663;53.588;10.010;2023-05-07T01:44:00;10.90;99.90
5280;DHT22;2663;53.588;10.010;2023-05-07T01:46:28;10.90;99.90
5280;DHT22;2663;53.588;10.010;2023-05-07T01:48:55;10.90;99.90
5280;DHT22;2663;53.588;10.010;2023-05-07T01:51:22;10.80;99.90
5280;DHT22;2663;53.588;10.010;2023-05-07T01:53:49;10.80;99.90
5280;DHT22;2663;53.588;10.010;2023-05-07T01:56:18;10.70;99.90
5280;DHT22;2663;53.588;10.010;2023-05-07T01:58:45;10.70;99.90
5280;DHT22;2663;53.588;10.010;2023-05-07T02:01:13;10.80;99.90
5280;DHT22;2663;53.588;10.010;2023-05-07T02:03:40;10.80;99.90
5280;DHT22;2663;53.588;10.010;2023-05-07T02:06:08;10.90;99.90
5280;DHT22;2663;53.588;10.010;2023-05-07T02:08:34;11.00;99.90
5280;DHT22;2663;53.588;10.010;2023-05-07T02:11:01;10.90;99.90
5280;DHT22;2663;53.588;10.010;2023-05-07T02:13:30;10.80;99.90
5280;DHT22;2663;53.588;10.010;2023-05-07T02:15:57;10.70;99.90
5280;DHT22;2663;53.588;10.010;2023-05-07T02:18:23;10.70;99.90
5280;DHT22;2663;53.588;10.010;2023-05-07T02:20:50;10.80;99.90
5280;DHT22;2663;53.588;10.010;2023-05-07T02:23:17;10.80;99.90
5280;DHT22;2663;53.588;10.010;2023-05-07T02:25:44;10.80;99.90
5280;DHT22;2663;53.588;10.010;2023-05-07T02:28:11;10.80;99.90
5280;DHT22;2663;53.588;10.010;2023-05-07T02:30:38;10.70;99.90
5280;DHT22;2663;53.588;10.010;2023-05-07T02:33:05;10.80;99.90
5280;DHT22;2663;53.588;10.010;2023-05-07T02:35:32;12.40;99.90
5280;DHT22;2663;53.588;10.010;2023-05-07T02:37:59;10.90;99.90
5280;DHT22;2663;53.588;10.010;2023-05-07T02:40:26;10.90;99.90
5280;DHT22;2663;53.588;10.010;2023-05-07T02:42:52;10.80;99.90
5280;DHT22;2663;53.588;10.010;2023-05-07T02:45:19;10.90;99.90
5280;DHT22;2663;53.588;10.010;2023-05-07T02:47:46;10.90;99.90
5280;DHT22;2663;53.588;10.010;2023-05-07T02:50:13;10.80;99.90
5280;DHT22;2663;53.588;10.010;2023-05-07T02:52:40;10.80;99.90
5280;DHT22;2663;53.588;10.010;2023-05-07T02:55:07;10.80;99.90
5280;DHT22;2663;53.588;10.010;2023-05-07T02:57:34;10.90;99.90
5280;DHT22;2663;53.588;10.010;2023-05-07T03:00:10;10.80;99.90
5280;DHT22;2663;53.588;10.010;2023-05-07T03:02:37;10.80;99.90
5280;DHT22;2663;53.588;10.010;2023-05-07T03:05:04;10.80;99.90
5280;DHT22;2663;53.588;10.010;2023-05-07T03:07:32;10.80;99.90
5280;DHT22;2663;53.588;10.010;2023-05-07T03:09:58;10.80;99.90
5280;DHT22;2663;53.588;10.010;2023-05-07T03:12:25;10.90;99.90
5280;DHT22;2663;53.588;10.010;2023-05-07T03:14:51;10.90;99.90
5280;DHT22;2663;53.588;10.010;2023-05-07T03:17:18;10.90;99.90
5280;DHT22;2663;53.588;10.010;2023-05-07T03:19:45;10.90;99.90
5280;DHT22;2663;53.588;10.010;2023-05-07T03:22:11;10.90;99.90
5280;DHT22;2663;53.588;10.010;2023-05-07T03:24:38;10.90;99.90
5280;DHT22;2663;53.588;10.010;2023-05-07T03:27:05;10.80;99.90
5280;DHT22;2663;53.588;10.010;2023-05-07T03:29:32;10.80;99.90
5280;DHT22;2663;53.588;10.010;2023-05-07T03:31:58;10.80;99.90
5280;DHT22;2663;53.588;10.010;2023-05-07T03:34:25;10.90;99.90
5280;DHT22;2663;53.588;10.010;2023-05-07T03:36:52;10.90;99.90
5280;DHT22;2663;53.588;10.010;2023-05-07T03:39:19;10.80;99.90
5280;DHT22;2663;53.588;10.010;2023-05-07T03:41:45;10.90;99.90
5280;DHT22;2663;53.588;10.010;2023-05-07T03:44:12;10.80;99.90
5280;DHT22;2663;53.588;10.010;2023-05-07T03:46:39;10.80;99.90
5280;DHT22;2663;53.588;10.010;2023-05-07T03:49:05;10.80;99.90
5280;DHT22;2663;53.588;10.010;2023-05-07T03:51:32;10.80;99.90
5280;DHT22;2663;53.588;10.010;2023-05-07T03:53:59;10.80;99.90
5280;DHT22;2663;53.588;10.010;2023-05-07T03:56:25;10.80;99.90
5280;DHT22;2663;53.588;10.010;2023-05-07T03:58:53;10.80;99.90
5280;DHT22;2663;53.588;10.010;2023-05-07T04:01:20;10.90;99.90
5280;DHT22;2663;53.588;10.010;2023-05-07T04:03:47;10.90;99.90
5280;DHT22;2663;53.588;10.010;2023-05-07T04:06:16;10.90;99.90
5280;DHT22;2663;53.588;10.010;2023-05-07T04:08:43;11.00;99.90
5280;DHT22;2663;53.588;10.010;2023-05-07T04:11:10;10.80;99.90
5280;DHT22;2663;53.588;10.010;2023-05-07T04:13:37;10.90;99.90
5280;DHT22;2663;53.588;10.010;2023-05-07T04:16:04;10.90;99.90
5280;DHT22;2663;53.588;10.010;2023-05-07T04:18:31;11.00;99.90
5280;DHT22;2663;53.588;10.010;2023-05-07T04:20:58;11.00;99.90
5280;DHT22;2663;53.588;10.010;2023-05-07T04:23:25;11.00;99.90
5280;DHT22;2663;53.588;10.010;2023-05-07T04:25:51;11.10;99.90
5280;DHT22;2663;53.588;10.010;2023-05-07T04:28:18;11.00;99.90
5280;DHT22;2663;53.588;10.010;2023-05-07T04:30:45;10.90;99.90
5280;DHT22;2663;53.588;10.010;2023-05-07T04:33:14;10.90;99.90
5280;DHT22;2663;53.588;10.010;2023-05-07T04:35:42;11.00;99.90
5280;DHT22;2663;53.588;10.010;2023-05-07T04:38:08;10.90;99.90
5280;DHT22;2663;53.588;10.010;2023-05-07T04:40:36;10.80;99.90
5280;DHT22;2663;53.588;10.010;2023-05-07T04:43:02;10.80;99.90
5280;DHT22;2663;53.588;10.010;2023-05-07T04:45:29;10.90;99.90
5280;DHT22;2663;53.588;10.010;2023-05-07T04:47:56;11.00;99.90
5280;DHT22;2663;53.588;10.010;2023-05-07T04:50:23;11.10;99.90
5280;DHT22;2663;53.588;10.010;2023-05-07T04:52:50;11.10;99.90
5280;DHT22;2663;53.588;10.010;2023-05-07T04:55:17;10.90;99.90
5280;DHT22;2663;53.588;10.010;2023-05-07T04:57:44;10.80;99.90
5280;DHT22;2663;53.588;10.010;2023-05-07T05:00:11;10.80;99.90
5280;DHT22;2663;53.588;10.010;2023-05-07T05:02:41;10.80;99.90
5280;DHT22;2663;53.588;10.010;2023-05-07T05:05:08;10.90;99.90
5280;DHT22;2663;53.588;10.010;2023-05-07T05:07:35;11.00;99.90
5280;DHT22;2663;53.588;10.010;2023-05-07T05:10:02;11.00;99.90
5280;DHT22;2663;53.588;10.010;2023-05-07T05:12:29;11.00;99.90
5280;DHT22;2663;53.588;10.010;2023-05-07T05:14:57;10.90;99.90
5280;DHT22;2663;53.588;10.010;2023-05-07T05:17:24;11.00;99.90
5280;DHT22;2663;53.588;10.010;2023-05-07T05:19:50;11.10;99.90
5280;DHT22;2663;53.588;10.010;2023-05-07T05:22:17;11.10;99.90
5280;DHT22;2663;53.588;10.010;2023-05-07T05:24:44;11.10;99.90
5280;DHT22;2663;53.588;10.010;2023-05-07T05:27:10;11.10;99.90
5280;DHT22;2663;53.588;10.010;2023-05-07T05:29:37;11.20;99.90
5280;DHT22;2663;53.588;10.010;2023-05-07T05:32:04;11.10;99.90
5280;DHT22;2663;53.588;10.010;2023-05-07T05:34:31;11.10;99.90
5280;DHT22;2663;53.588;10.010;2023-05-07T05:36:59;11.20;99.90
5280;DHT22;2663;53.588;10.010;2023-05-07T05:39:26;11.10;99.90
5280;DHT22;2663;53.588;10.010;2023-05-07T05:41:52;11.10;99.90
5280;DHT22;2663;53.588;10.010;2023-05-07T05:44:19;11.00;99.90
5280;DHT22;2663;53.588;10.010;2023-05-07T05:46:46;10.90;99.90
5280;DHT22;2663;53.588;10.010;2023-05-07T05:49:13;11.00;99.90
5280;DHT22;2663;53.588;10.010;2023-05-07T05:51:39;11.00;99.90
5280;DHT22;2663;53.588;10.010;2023-05-07T05:54:06;11.10;99.90
5280;DHT22;2663;53.588;10.010;2023-05-07T05:56:33;11.10;99.90
5280;DHT22;2663;53.588;10.010;2023-05-07T05:59:00;11.00;99.90
5280;DHT22;2663;53.588;10.010;2023-05-07T06:01:27;11.10;99.90
5280;DHT22;2663;53.588;10.010;2023-05-07T06:03:53;11.10;99.90
5280;DHT22;2663;53.588;10.010;2023-05-07T06:06:20;11.20;99.90
5280;DHT22;2663;53.588;10.010;2023-05-07T06:08:46;11.20;99.90
5280;DHT22;2663;53.588;10.010;2023-05-07T06:11:13;11.10;99.90
5280;DHT22;2663;53.588;10.010;2023-05-07T06:13:40;11.20;99.90
5280;DHT22;2663;53.588;10.010;2023-05-07T06:16:07;11.10;99.90
5280;DHT22;2663;53.588;10.010;2023-05-07T06:18:33;11.10;99.90
5280;DHT22;2663;53.588;10.010;2023-05-07T06:21:02;11.10;99.90
5280;DHT22;2663;53.588;10.010;2023-05-07T06:23:29;11.20;99.90
5280;DHT22;2663;53.588;10.010;2023-05-07T06:25:55;11.20;99.90
5280;DHT22;2663;53.588;10.010;2023-05-07T06:28:22;11.30;99.90
5280;DHT22;2663;53.588;10.010;2023-05-07T06:30:49;11.30;99.90
5280;DHT22;2663;53.588;10.010;2023-05-07T06:33:16;11.20;99.90
5280;DHT22;2663;53.588;10.010;2023-05-07T06:35:43;11.20;99.90
5280;DHT22;2663;53.588;10.010;2023-05-07T06:38:09;11.20;99.90
5280;DHT22;2663;53.588;10.010;2023-05-07T06:40:37;11.20;99.90
5280;DHT22;2663;53.588;10.010;2023-05-07T06:43:03;11.30;99.90
5280;DHT22;2663;53.588;10.010;2023-05-07T06:45:30;11.30;99.90
5280;DHT22;2663;53.588;10.010;2023-05-07T06:47:56;11.30;99.90
5280;DHT22;2663;53.588;10.010;2023-05-07T06:50:23;11.40;99.90
5280;DHT22;2663;53.588;10.010;2023-05-07T06:52:50;11.40;99.90
5280;DHT22;2663;53.588;10.010;2023-05-07T06:55:17;11.50;99.90
5280;DHT22;2663;53.588;10.010;2023-05-07T06:57:44;11.50;99.90
5280;DHT22;2663;53.588;10.010;2023-05-07T07:00:11;11.40;99.90
5280;DHT22;2663;53.588;10.010;2023-05-07T07:02:38;11.40;99.90
5280;DHT22;2663;53.588;10.010;2023-05-07T07:05:05;11.40;99.90
5280;DHT22;2663;53.588;10.010;2023-05-07T07:07:32;11.30;99.90
5280;DHT22;2663;53.588;10.010;2023-05-07T07:09:59;11.40;99.90
5280;DHT22;2663;53.588;10.010;2023-05-07T07:12:25;11.50;99.90
5280;DHT22;2663;53.588;10.010;2023-05-07T07:14:52;11.50;99.90
5280;DHT22;2663;53.588;10.010;2023-05-07T07:17:20;11.50;99.90
5280;DHT22;2663;53.588;10.010;2023-05-07T07:19:47;11.60;99.90
5280;DHT22;2663;53.588;10.010;2023-05-07T07:22:14;11.70;99.90
5280;DHT22;2663;53.588;10.010;2023-05-07T07:24:41;11.70;99.90
5280;DHT22;2663;53.588;10.010;2023-05-07T07:27:07;11.80;99.90
5280;DHT22;2663;53.588;10.010;2023-05-07T07:29:34;11.30;99.90
5280;DHT22;2663;53.588;10.010;2023-05-07T07:32:01;11.70;99.90
5280;DHT22;2663;53.588;10.010;2023-05-07T07:34:27;11.80;99.90
5280;DHT22;2663;53.588;10.010;2023-05-07T07:36:54;12.00;99.90
5280;DHT22;2663;53.588;10.010;2023-05-07T07:39:21;12.30;99.90
5280;DHT22;2663;53.588;10.010;2023-05-07T07:41:48;12.50;99.90
5280;DHT22;2663;53.588;10.010;2023-05-07T07:44:14;12.90;99.90
5280;DHT22;2663;53.588;10.010;2023-05-07T07:46:42;13.10;99.90
5280;DHT22;2663;53.588;10.010;2023-05-07T07:49:09;13.30;99.90
5280;DHT22;2663;53.588;10.010;2023-05-07T07:51:36;13.30;99.90
5280;DHT22;2663;53.588;10.010;2023-05-07T07:54:03;12.90;99.90
5280;DHT22;2663;53.588;10.010;2023-05-07T07:56:29;12.70;99.90
5280;DHT22;2663;53.588;10.010;2023-05-07T07:58:56;12.60;99.90
5280;DHT22;2663;53.588;10.010;2023-05-07T08:01:23;12.60;99.90
5280;DHT22;2663;53.588;10.010;2023-05-07T08:03:50;12.30;99.90
5280;DHT22;2663;53.588;10.010;2023-05-07T08:06:17;11.50;99.90
5280;DHT22;2663;53.588;10.010;2023-05-07T08:08:44;12.30;99.90
5280;DHT22;2663;53.588;10.010;2023-05-07T08:11:11;12.40;99.90
5280;DHT22;2663;53.588;10.010;2023-05-07T08:13:38;12.30;99.90
5280;DHT22;2663;53.588;10.010;2023-05-07T08:16:05;12.40;99.90
5280;DHT22;2663;53.588;10.010;2023-05-07T08:18:31;12.70;99.90
5280;DHT22;2663;53.588;10.010;2023-05-07T08:20:58;13.00;99.90
5280;DHT22;2663;53.588;10.010;2023-05-07T08:23:25;13.00;99.90
5280;DHT22;2663;53.588;10.010;2023-05-07T08:25:53;11.00;99.90
5280;DHT22;2663;53.588;10.010;2023-05-07T08:28:20;12.60;99.90
5280;DHT22;2663;53.588;10.010;2023-05-07T08:30:47;12.50;99.90
5280;DHT22;2663;53.588;10.010;2023-05-07T08:33:14;12.60;99.90
5280;DHT22;2663;53.588;10.010;2023-05-07T08:35:41;12.80;99.90
5280;DHT22;2663;53.588;10.010;2023-05-07T08:38:08;12.80;99.90
5280;DHT22;2663;53.588;10.010;2023-05-07T08:40:37;12.90;99.90
5280;DHT22;2663;53.588;10.010;2023-05-07T08:43:06;12.80;99.90
5280;DHT22;2663;53.588;10.010;2023-05-07T08:45:34;12.80;99.90
5280;DHT22;2663;53.588;10.010;2023-05-07T08:48:09;12.80;99.90
5280;DHT22;2663;53.588;10.010;2023-05-07T08:50:36;13.00;99.90
5280;DHT22;2663;53.588;10.010;2023-05-07T08:53:04;13.00;99.90
5280;DHT22;2663;53.588;10.010;2023-05-07T08:55:31;13.00;99.90
5280;DHT22;2663;53.588;10.010;2023-05-07T08:58:00;13.20;99.90
5280;DHT22;2663;53.588;10.010;2023-05-07T09:00:27;12.30;99.90
5280;DHT22;2663;53.588;10.010;2023-05-07T09:02:54;13.00;99.90
5280;DHT22;2663;53.588;10.010;2023-05-07T09:05:21;13.10;99.90
5280;DHT22;2663;53.588;10.010;2023-05-07T09:07:48;13.10;99.90
5280;DHT22;2663;53.588;10.010;2023-05-07T09:10:19;13.10;99.90
5280;DHT22;2663;53.588;10.010;2023-05-07T09:12:47;13.30;99.90
5280;DHT22;2663;53.588;10.010;2023-05-07T09:15:13;13.40;99.90
5280;DHT22;2663;53.588;10.010;2023-05-07T09:17:40;13.50;99.90
5280;DHT22;2663;53.588;10.010;2023-05-07T09:20:09;13.50;99.90
5280;DHT22;2663;53.588;10.010;2023-05-07T09:22:37;13.60;99.90
5280;DHT22;2663;53.588;10.010;2023-05-07T09:25:06;11.90;99.90
5280;DHT22;2663;53.588;10.010;2023-05-07T09:27:33;13.50;99.90
5280;DHT22;2663;53.588;10.010;2023-05-07T09:30:04;13.40;99.90
5280;DHT22;2663;53.588;10.010;2023-05-07T09:32:34;13.50;99.90
5280;DHT22;2663;53.588;10.010;2023-05-07T09:35:02;14.50;99.90
5280;DHT22;2663;53.588;10.010;2023-05-07T09:37:31;13.50;99.90
5280;DHT22;2663;53.588;10.010;2023-05-07T09:39:58;13.50;99.90
5280;DHT22;2663;53.588;10.010;2023-05-07T09:42:25;13.50;99.90
5280;DHT22;2663;53.588;10.010;2023-05-07T09:44:53;13.50;99.90
5280;DHT22;2663;53.588;10.010;2023-05-07T09:47:22;13.60;99.90
5280;DHT22;2663;53.588;10.010;2023-05-07T09:49:50;13.70;99.90
5280;DHT22;2663;53.588;10.010;2023-05-07T09:52:19;13.80;99.90
5280;DHT22;2663;53.588;10.010;2023-05-07T09:54:47;13.60;99.90
5280;DHT22;2663;53.588;10.010;2023-05-07T09:57:15;13.50;99.90
5280;DHT22;2663;53.588;10.010;2023-05-07T09:59:43;13.60;99.90
5280;DHT22;2663;53.588;10.010;2023-05-07T10:02:11;13.70;99.90
5280;DHT22;2663;53.588;10.010;2023-05-07T10:04:39;13.70;99.90
5280;DHT22;2663;53.588;10.010;2023-05-07T10:07:07;13.80;99.90
5280;DHT22;2663;53.588;10.010;2023-05-07T10:09:34;13.90;99.90
5280;DHT22;2663;53.588;10.010;2023-05-07T10:12:05;13.90;99.90
5280;DHT22;2663;53.588;10.010;2023-05-07T10:14:32;13.90;99.90
5280;DHT22;2663;53.588;10.010;2023-05-07T10:17:00;13.80;99.90
5280;DHT22;2663;53.588;10.010;2023-05-07T10:19:29;13.70;99.90
5280;DHT22;2663;53.588;10.010;2023-05-07T10:22:03;13.80;99.90
5280;DHT22;2663;53.588;10.010;2023-05-07T10:24:33;14.10;99.90
5280;DHT22;2663;53.588;10.010;2023-05-07T10:27:11;14.10;99.90
5280;DHT22;2663;53.588;10.010;2023-05-07T10:29:47;14.10;99.90
5280;DHT22;2663;53.588;10.010;2023-05-07T10:32:42;14.10;99.90
5280;DHT22;2663;53.588;10.010;2023-05-07T10:35:20;14.10;99.90
5280;DHT22;2663;53.588;10.010;2023-05-07T10:37:48;13.80;99.90
5280;DHT22;2663;53.588;10.010;2023-05-07T10:40:15;13.90;99.90
5280;DHT22;2663;53.588;10.010;2023-05-07T10:43:02;14.10;99.90
5280;DHT22;2663;53.588;10.010;2023-05-07T10:45:30;13.80;99.90
5280;DHT22;2663;53.588;10.010;2023-05-07T10:48:16;14.00;99.90
5280;DHT22;2663;53.588;10.010;2023-05-07T10:51:18;13.90;99.90
5280;DHT22;2663;53.588;10.010;2023-05-07T10:53:45;13.90;99.90
5280;DHT22;2663;53.588;10.010;2023-05-07T10:58:45;13.50;99.90
5280;DHT22;2663;53.588;10.010;2023-05-07T11:01:11;13.50;99.90
5280;DHT22;2663;53.588;10.010;2023-05-07T11:04:15;13.60;99.90
5280;DHT22;2663;53.588;10.010;2023-05-07T11:06:42;13.70;99.90
5280;DHT22;2663;53.588;10.010;2023-05-07T11:15:15;13.70;99.90
5280;DHT22;2663;53.588;10.010;2023-05-07T11:17:56;13.70;99.90
5280;DHT22;2663;53.588;10.010;2023-05-07T11:20:55;13.90;99.90
5280;DHT22;2663;53.588;10.010;2023-05-07T11:26:08;14.10;99.90
5280;DHT22;2663;53.588;10.010;2023-05-07T11:28:39;14.10;99.90
5280;DHT22;2663;53.588;10.010;2023-05-07T11:31:06;14.10;99.90
5280;DHT22;2663;53.588;10.010;2023-05-07T11:33:34;14.10;99.90
5280;DHT22;2663;53.588;10.010;2023-05-07T11:36:03;14.20;99.90
5280;DHT22;2663;53.588;10.010;2023-05-07T11:38:30;14.40;99.90
5280;DHT22;2663;53.588;10.010;2023-05-07T11:41:01;14.30;99.90
5280;DHT22;2663;53.588;10.010;2023-05-07T11:43:28;14.30;99.90
5280;DHT22;2663;53.588;10.010;2023-05-07T11:46:06;14.30;99.90
5280;DHT22;2663;53.588;10.010;2023-05-07T11:48:33;14.50;99.90
5280;DHT22;2663;53.588;10.010;2023-05-07T11:51:03;14.60;99.90
5280;DHT22;2663;53.588;10.010;2023-05-07T11:56:08;15.00;99.90
5280;DHT22;2663;53.588;10.010;2023-05-07T11:58:35;15.00;99.90
5280;DHT22;2663;53.588;10.010;2023-05-07T12:01:02;15.00;99.90
5280;DHT22;2663;53.588;10.010;2023-05-07T12:03:29;15.10;99.90
5280;DHT22;2663;53.588;10.010;2023-05-07T12:06:01;15.00;99.90
5280;DHT22;2663;53.588;10.010;2023-05-07T12:08:28;15.10;99.90
5280;DHT22;2663;53.588;10.010;2023-05-07T12:10:54;15.50;99.90
5280;DHT22;2663;53.588;10.010;2023-05-07T12:13:24;15.70;99.90
5280;DHT22;2663;53.588;10.010;2023-05-07T12:15:52;16.00;99.90
5280;DHT22;2663;53.588;10.010;2023-05-07T12:18:20;16.40;99.90
5280;DHT22;2663;53.588;10.010;2023-05-07T12:20:47;16.50;99.90
5280;DHT22;2663;53.588;10.010;2023-05-07T12:23:14;16.60;99.90
5280;DHT22;2663;53.588;10.010;2023-05-07T12:25:42;16.70;99.90
5280;DHT22;2663;53.588;10.010;2023-05-07T12:28:17;16.50;99.90
5280;DHT22;2663;53.588;10.010;2023-05-07T12:30:45;16.60;99.90
5280;DHT22;2663;53.588;10.010;2023-05-07T12:33:12;16.40;99.90
5280;DHT22;2663;53.588;10.010;2023-05-07T12:35:42;16.50;99.90
5280;DHT22;2663;53.588;10.010;2023-05-07T12:38:13;16.70;99.90
5280;DHT22;2663;53.588;10.010;2023-05-07T12:40:46;16.70;99.90
5280;DHT22;2663;53.588;10.010;2023-05-07T12:43:21;16.50;99.90
5280;DHT22;2663;53.588;10.010;2023-05-07T12:45:49;16.70;99.90
5280;DHT22;2663;53.588;10.010;2023-05-07T12:48:16;16.90;99.90
5280;DHT22;2663;53.588;10.010;2023-05-07T12:50:43;16.90;99.90
5280;DHT22;2663;53.588;10.010;2023-05-07T12:53:11;16.90;99.90
5280;DHT22;2663;53.588;10.010;2023-05-07T12:55:44;16.60;99.90
5280;DHT22;2663;53.588;10.010;2023-05-07T12:58:25;16.70;99.90
5280;DHT22;2663;53.588;10.010;2023-05-07T13:00:53;16.90;99.90
5280;DHT22;2663;53.588;10.010;2023-05-07T13:03:28;17.00;99.90
5280;DHT22;2663;53.588;10.010;2023-05-07T13:05:58;16.90;99.90
5280;DHT22;2663;53.588;10.010;2023-05-07T13:08:40;17.00;99.90
5280;DHT22;2663;53.588;10.010;2023-05-07T13:11:09;17.00;99.90
5280;DHT22;2663;53.588;10.010;2023-05-07T13:13:38;17.10;99.90
5280;DHT22;2663;53.588;10.010;2023-05-07T13:16:07;17.20;99.90
5280;DHT22;2663;53.588;10.010;2023-05-07T13:18:35;17.20;99.90
5280;DHT22;2663;53.588;10.010;2023-05-07T13:21:02;17.30;99.90
5280;DHT22;2663;53.588;10.010;2023-05-07T13:23:29;17.50;99.90
5280;DHT22;2663;53.588;10.010;2023-05-07T13:25:56;17.40;99.90
5280;DHT22;2663;53.588;10.010;2023-05-07T13:28:24;17.50;99.90
5280;DHT22;2663;53.588;10.010;2023-05-07T13:30:52;17.60;99.90
5280;DHT22;2663;53.588;10.010;2023-05-07T13:33:19;17.60;99.90
5280;DHT22;2663;53.588;10.010;2023-05-07T13:35:46;17.70;99.90
5280;DHT22;2663;53.588;10.010;2023-05-07T13:38:12;17.80;99.90
5280;DHT22;2663;53.588;10.010;2023-05-07T13:40:39;17.90;99.90
5280;DHT22;2663;53.588;10.010;2023-05-07T13:43:06;17.90;99.90
5280;DHT22;2663;53.588;10.010;2023-05-07T13:45:32;18.10;99.90
5280;DHT22;2663;53.588;10.010;2023-05-07T13:48:00;18.20;99.70
5280;DHT22;2663;53.588;10.010;2023-05-07T13:50:27;18.30;99.90
5280;DHT22;2663;53.588;10.010;2023-05-07T13:52:55;18.40;99.90
5280;DHT22;2663;53.588;10.010;2023-05-07T13:55:24;18.60;99.90
5280;DHT22;2663;53.588;10.010;2023-05-07T13:57:58;18.80;99.40
5280;DHT22;2663;53.588;10.010;2023-05-07T14:00:26;18.80;98.90
5280;DHT22;2663;53.588;10.010;2023-05-07T14:02:53;18.70;99.40
5280;DHT22;2663;53.588;10.010;2023-05-07T14:05:21;18.70;99.40
5280;DHT22;2663;53.588;10.010;2023-05-07T14:07:52;19.80;99.40
5280;DHT22;2663;53.588;10.010;2023-05-07T14:10:19;18.80;98.50
5280;DHT22;2663;53.588;10.010;2023-05-07T14:12:46;18.70;98.60
5280;DHT22;2663;53.588;10.010;2023-05-07T14:15:14;18.50;98.50
5280;DHT22;2663;53.588;10.010;2023-05-07T14:17:41;18.70;98.50
5280;DHT22;2663;53.588;10.010;2023-05-07T14:20:08;19.00;98.50
5280;DHT22;2663;53.588;10.010;2023-05-07T14:22:36;19.20;98.40
5280;DHT22;2663;53.588;10.010;2023-05-07T14:25:03;19.20;97.40
5280;DHT22;2663;53.588;10.010;2023-05-07T14:27:33;19.30;98.50
5280;DHT22;2663;53.588;10.010;2023-05-07T14:29:59;19.60;98.20
5280;DHT22;2663;53.588;10.010;2023-05-07T14:32:26;19.70;96.40
5280;DHT22;2663;53.588;10.010;2023-05-07T14:34:53;19.80;96.50
5280;DHT22;2663;53.588;10.010;2023-05-07T14:37:20;19.70;95.80
5280;DHT22;2663;53.588;10.010;2023-05-07T14:39:46;19.80;96.10
5280;DHT22;2663;53.588;10.010;2023-05-07T14:42:17;19.80;95.70
5280;DHT22;2663;53.588;10.010;2023-05-07T14:44:44;19.70;96.30
5280;DHT22;2663;53.588;10.010;2023-05-07T14:47:12;19.40;96.50
5280;DHT22;2663;53.588;10.010;2023-05-07T14:49:39;19.30;96.40
5280;DHT22;2663;53.588;10.010;2023-05-07T14:52:07;19.20;96.80
5280;DHT22;2663;53.588;10.010;2023-05-07T14:54:37;19.10;96.40
5280;DHT22;2663;53.588;10.010;2023-05-07T14:57:05;18.90;97.00
5280;DHT22;2663;53.588;10.010;2023-05-07T14:59:32;19.00;97.10
5280;DHT22;2663;53.588;10.010;2023-05-07T15:02:00;19.00;97.70
5280;DHT22;2663;53.588;10.010;2023-05-07T15:04:30;19.00;96.20
5280;DHT22;2663;53.588;10.010;2023-05-07T15:06:56;19.90;96.90
5280;DHT22;2663;53.588;10.010;2023-05-07T15:09:23;18.80;97.00
5280;DHT22;2663;53.588;10.010;2023-05-07T15:11:50;18.70;96.50
5280;DHT22;2663;53.588;10.010;2023-05-07T15:14:17;18.80;96.60
5280;DHT22;2663;53.588;10.010;2023-05-07T15:16:43;18.40;97.10
5280;DHT22;2663;53.588;10.010;2023-05-07T15:19:10;18.30;97.60
5280;DHT22;2663;53.588;10.010;2023-05-07T15:21:37;18.50;98.00
5280;DHT22;2663;53.588;10.010;2023-05-07T15:24:04;18.40;96.70
5280;DHT22;2663;53.588;10.010;2023-05-07T15:26:31;18.50;96.30
5280;DHT22;2663;53.588;10.010;2023-05-07T15:28:58;18.50;96.80
5280;DHT22;2663;53.588;10.010;2023-05-07T15:31:25;18.50;97.80
5280;DHT22;2663;53.588;10.010;2023-05-07T15:33:52;18.50;97.10
5280;DHT22;2663;53.588;10.010;2023-05-07T15:36:20;18.60;97.30
5280;DHT22;2663;53.588;10.010;2023-05-07T15:38:46;18.80;97.10
5280;DHT22;2663;53.588;10.010;2023-05-07T15:41:13;18.80;96.40
5280;DHT22;2663;53.588;10.010;2023-05-07T15:43:45;18.70;95.80
5280;DHT22;2663;53.588;10.010;2023-05-07T15:46:17;18.50;96.40
5280;DHT22;2663;53.588;10.010;2023-05-07T15:48:44;18.50;96.80
5280;DHT22;2663;53.588;10.010;2023-05-07T15:51:11;18.40;97.60
5280;DHT22;2663;53.588;10.010;2023-05-07T15:53:38;18.40;97.70
5280;DHT22;2663;53.588;10.010;2023-05-07T15:56:06;18.30;96.60
5280;DHT22;2663;53.588;10.010;2023-05-07T15:58:34;18.20;97.70
5280;DHT22;2663;53.588;10.010;2023-05-07T16:01:01;18.00;96.90
5280;DHT22;2663;53.588;10.010;2023-05-07T16:03:29;18.00;98.00